createdAt,value
2024-02-03T00:01:13.029Z,11.63
2024-02-03T00:03:35.911Z,11.37
2024-02-03T00:05:58.732Z,11.50
2024-02-03T00:08:21.511Z,11.38
2024-02-03T00:10:44.269Z,10.35
2024-02-03T00:13:07.071Z,10.75
2024-02-03T00:15:29.976Z,9.87
2024-02-03T00:17:53.072Z,10.20
2024-02-03T00:20:15.976Z,10.68
2024-02-03T00:22:38.950Z,10.40
2024-02-03T00:25:02.146Z,10.52
2024-02-03T00:27:24.942Z,10.63
2024-02-03T00:29:47.754Z,10.88
2024-02-03T00:32:10.595Z,10.30
2024-02-03T00:34:33.483Z,10.15
2024-02-03T00:36:56.333Z,10.70
2024-02-03T00:39:19.061Z,10.33
2024-02-03T00:41:42.085Z,9.90
2024-02-03T00:44:05.144Z,9.45
2024-02-03T00:46:27.803Z,10.20
2024-02-03T00:48:50.821Z,10.18
2024-02-03T00:51:13.823Z,10.03
2024-02-03T00:53:37.688Z,10.38
2024-02-03T00:56:01.781Z,10.27
2024-02-03T00:58:24.542Z,10.35
2024-02-03T01:00:47.302Z,9.85
2024-02-03T01:03:10.444Z,9.47
2024-02-03T01:05:33.371Z,9.85
2024-02-03T01:07:57.063Z,10.80
2024-02-03T01:10:20.021Z,10.18
2024-02-03T01:12:45.674Z,10.23
2024-02-03T01:15:08.756Z,10.00
2024-02-03T01:17:31.651Z,9.32
2024-02-03T01:19:55.313Z,9.60
2024-02-03T01:22:18.000Z,9.43
2024-02-03T01:24:40.740Z,10.23
2024-02-03T01:27:04.434Z,9.40
2024-02-03T01:29:29.449Z,9.38
2024-02-03T01:31:52.541Z,9.52
2024-02-03T01:34:15.500Z,9.98
2024-02-03T01:36:38.308Z,9.85
2024-02-03T01:39:01.069Z,8.93
2024-02-03T01:41:23.868Z,9.77
2024-02-03T01:43:47.342Z,9.63
2024-02-03T01:46:10.791Z,10.10
2024-02-03T01:48:34.590Z,9.75
2024-02-03T01:50:57.870Z,9.20
2024-02-03T01:53:21.487Z,9.02
2024-02-03T01:55:44.623Z,9.45
2024-02-03T01:58:07.260Z,9.30
2024-02-03T02:00:31.896Z,9.40
2024-02-03T02:02:57.591Z,9.50
2024-02-03T02:05:20.276Z,9.50
2024-02-03T02:07:46.281Z,9.13
2024-02-03T02:10:09.294Z,9.30
2024-02-03T02:12:36.631Z,9.07
2024-02-03T02:14:59.476Z,8.77
2024-02-03T02:17:22.357Z,9.63
2024-02-03T02:19:45.328Z,9.32
2024-02-03T02:22:08.138Z,8.90
2024-02-03T02:24:30.804Z,9.15
2024-02-03T02:26:53.502Z,9.00
2024-02-03T02:29:16.170Z,9.75
2024-02-03T02:31:38.987Z,8.98
2024-02-03T02:34:02.036Z,9.20
2024-02-03T02:36:25.768Z,8.77
2024-02-03T02:38:48.938Z,8.60
2024-02-03T02:41:11.806Z,9.35
2024-02-03T02:43:34.655Z,9.00
2024-02-03T02:45:57.747Z,8.88
2024-02-03T02:48:21.111Z,9.00
2024-02-03T02:50:44.274Z,9.07
2024-02-03T02:53:08.351Z,8.90
2024-02-03T02:55:31.244Z,9.00
2024-02-03T02:57:54.003Z,9.02
2024-02-03T03:00:17.443Z,8.88
2024-02-03T03:02:40.281Z,9.00
2024-02-03T03:05:03.050Z,9.02
2024-02-03T03:07:25.849Z,9.50
2024-02-03T03:09:48.556Z,9.18
2024-02-03T03:12:12.237Z,8.88
2024-02-03T03:14:35.525Z,9.20
2024-02-03T03:16:58.205Z,9.13
2024-02-03T03:19:21.240Z,9.10
2024-02-03T03:21:44.146Z,9.18
2024-02-03T03:24:06.925Z,9.45
2024-02-03T03:26:29.785Z,8.93
2024-02-03T03:28:52.626Z,8.57
2024-02-03T03:31:15.307Z,9.23
2024-02-03T03:33:38.114Z,8.90
2024-02-03T03:36:00.945Z,9.52
2024-02-03T03:38:24.904Z,8.37
2024-02-03T03:40:47.540Z,9.55
2024-02-03T03:43:10.195Z,8.80
2024-02-03T03:45:33.602Z,8.88
2024-02-03T03:47:56.476Z,9.02
2024-02-03T03:50:20.188Z,8.53
2024-02-03T03:52:42.856Z,9.00
2024-02-03T03:55:06.402Z,8.70
2024-02-03T03:57:29.345Z,8.65
2024-02-03T03:59:51.973Z,9.10
2024-02-03T04:02:15.856Z,8.93
2024-02-03T04:04:39.763Z,8.95
2024-02-03T04:07:02.641Z,8.77
2024-02-03T04:09:25.338Z,8.13
2024-02-03T04:11:49.997Z,8.70
2024-02-03T04:14:12.660Z,7.87
2024-02-03T04:16:35.413Z,7.65
2024-02-03T04:18:58.153Z,7.75
2024-02-03T04:21:20.823Z,7.47
2024-02-03T04:23:43.491Z,7.32
2024-02-03T04:26:06.272Z,6.37
2024-02-03T04:28:28.915Z,6.68
2024-02-03T04:30:51.796Z,6.70
2024-02-03T04:33:14.671Z,5.95
2024-02-03T04:35:37.445Z,6.15
2024-02-03T04:38:04.157Z,6.80
2024-02-03T04:40:27.098Z,6.78
2024-02-03T04:42:50.134Z,5.70
2024-02-03T04:45:13.103Z,5.95
2024-02-03T04:47:35.998Z,5.75
2024-02-03T04:49:58.769Z,5.30
2024-02-03T04:52:21.643Z,5.72
2024-02-03T04:54:44.390Z,5.45
2024-02-03T04:57:07.134Z,5.03
2024-02-03T04:59:29.718Z,5.68
2024-02-03T05:01:52.457Z,5.87
2024-02-03T05:04:15.128Z,5.30
2024-02-03T05:06:38.077Z,5.25
2024-02-03T05:09:01.926Z,5.38
2024-02-03T05:11:24.653Z,5.03
2024-02-03T05:13:47.381Z,5.77
2024-02-03T05:16:10.019Z,4.80
2024-02-03T05:18:32.843Z,5.25
2024-02-03T05:20:55.599Z,4.65
2024-02-03T05:23:18.578Z,4.90
2024-02-03T05:25:41.347Z,4.50
2024-02-03T05:28:04.232Z,4.90
2024-02-03T05:30:28.323Z,4.50
2024-02-03T05:32:51.015Z,3.78
2024-02-03T05:35:14.796Z,4.72
2024-02-03T05:37:37.585Z,4.30
2024-02-03T05:40:00.495Z,4.75
2024-02-03T05:42:24.324Z,4.32
2024-02-03T05:44:47.189Z,4.45
2024-02-03T05:47:09.803Z,4.47
2024-02-03T05:49:32.731Z,4.57
2024-02-03T05:51:55.533Z,4.20
2024-02-03T05:54:18.599Z,4.65
2024-02-03T05:56:41.762Z,4.05
2024-02-03T05:59:20.667Z,4.60
2024-02-03T06:01:47.587Z,4.20
2024-02-03T06:04:12.017Z,4.07
2024-02-03T06:06:35.299Z,4.18
2024-02-03T06:08:58.044Z,4.43
2024-02-03T06:11:20.793Z,4.43
2024-02-03T06:13:43.455Z,3.80
2024-02-03T06:16:06.251Z,3.83
2024-02-03T06:18:29.249Z,3.80
2024-02-03T06:20:52.144Z,4.30
2024-02-03T06:23:14.752Z,4.20
2024-02-03T06:25:37.755Z,3.80
2024-02-03T06:28:00.991Z,3.45
2024-02-03T06:30:23.999Z,3.88
2024-02-03T06:32:46.967Z,4.22
2024-02-03T06:35:09.821Z,3.80
2024-02-03T06:37:32.751Z,3.70
2024-02-03T06:39:55.489Z,3.60
2024-02-03T06:42:18.668Z,3.67
2024-02-03T06:44:41.644Z,3.90
2024-02-03T06:47:04.536Z,4.07
2024-02-03T06:49:27.536Z,3.90
2024-02-03T06:51:50.355Z,3.60
2024-02-03T06:54:13.733Z,3.72
2024-02-03T06:56:37.010Z,3.60
2024-02-03T06:58:59.586Z,3.45
2024-02-03T07:01:23.750Z,3.30
2024-02-03T07:03:46.660Z,3.22
2024-02-03T07:06:09.696Z,3.38
2024-02-03T07:08:32.832Z,3.20
2024-02-03T07:10:55.535Z,3.05
2024-02-03T07:13:18.181Z,3.03
2024-02-03T07:15:40.882Z,2.90
2024-02-03T07:18:03.825Z,3.47
2024-02-03T07:20:26.997Z,3.30
2024-02-03T07:22:49.677Z,3.00
2024-02-03T07:25:18.076Z,3.33
2024-02-03T07:27:40.825Z,3.33
2024-02-03T07:30:04.476Z,3.00
2024-02-03T07:32:28.164Z,3.50
2024-02-03T07:34:51.048Z,3.30
2024-02-03T07:37:14.467Z,3.60
2024-02-03T07:39:37.390Z,3.08
2024-02-03T07:42:00.171Z,3.58
2024-02-03T07:44:22.944Z,3.63
2024-02-03T07:46:45.611Z,3.63
2024-02-03T07:49:08.333Z,3.70
2024-02-03T07:51:31.203Z,3.63
2024-02-03T07:53:53.899Z,3.50
2024-02-03T07:56:16.556Z,3.65
2024-02-03T07:58:39.228Z,3.40
2024-02-03T08:01:02.002Z,3.50
2024-02-03T08:03:24.845Z,3.90
2024-02-03T08:05:47.807Z,3.78
2024-02-03T08:08:10.671Z,3.40
2024-02-03T08:10:33.409Z,3.65
2024-02-03T08:12:56.241Z,3.50
2024-02-03T08:15:19.458Z,3.55
2024-02-03T08:17:43.216Z,3.40
2024-02-03T08:20:10.089Z,3.40
2024-02-03T08:22:33.413Z,3.75
2024-02-03T08:24:56.534Z,3.57
2024-02-03T08:27:19.374Z,3.83
2024-02-03T08:29:42.101Z,3.63
2024-02-03T08:32:05.080Z,3.60
2024-02-03T08:34:28.057Z,3.40
2024-02-03T08:36:51.077Z,3.57
2024-02-03T08:39:46.639Z,3.55
2024-02-03T08:41:56.882Z,3.83
2024-02-03T08:44:19.631Z,3.40
2024-02-03T08:46:42.227Z,3.78
2024-02-03T08:49:04.991Z,4.03
2024-02-03T08:51:27.748Z,3.45
2024-02-03T08:53:50.616Z,3.38
2024-02-03T08:56:13.567Z,3.80
2024-02-03T08:58:36.325Z,3.67
2024-02-03T09:00:58.969Z,3.10
2024-02-03T09:03:21.960Z,3.33
2024-02-03T09:05:44.672Z,3.30
2024-02-03T09:08:07.331Z,3.50
2024-02-03T09:10:31.381Z,3.30
2024-02-03T09:12:54.298Z,3.23
2024-02-03T09:15:17.219Z,3.50
2024-02-03T09:17:39.979Z,3.10
2024-02-03T09:20:03.360Z,3.13
2024-02-03T09:22:26.362Z,3.42
2024-02-03T09:24:49.143Z,3.30
2024-02-03T09:27:12.037Z,3.13
2024-02-03T09:29:34.880Z,3.40
2024-02-03T09:31:59.045Z,3.13
2024-02-03T09:34:22.066Z,3.33
2024-02-03T09:39:10.156Z,3.10
2024-02-03T09:41:33.745Z,3.10
2024-02-03T09:43:57.049Z,3.17
2024-02-03T09:46:19.850Z,3.40
2024-02-03T09:48:43.107Z,3.20
2024-02-03T09:51:07.339Z,2.70
2024-02-03T09:53:31.348Z,3.47
2024-02-03T09:55:58.677Z,3.40
2024-02-03T09:58:21.383Z,3.30
2024-02-03T10:00:44.130Z,3.07
2024-02-03T10:03:16.939Z,3.30
2024-02-03T10:05:40.098Z,3.17
2024-02-03T10:08:04.839Z,3.38
2024-02-03T10:13:10.372Z,3.20
2024-02-03T10:15:33.112Z,3.25
2024-02-03T10:18:03.916Z,3.70
2024-02-03T10:20:28.429Z,2.92
2024-02-03T10:22:51.146Z,3.70
2024-02-03T10:25:15.089Z,3.80
2024-02-03T10:27:38.046Z,3.50
2024-02-03T10:30:00.850Z,3.80
2024-02-03T10:32:24.021Z,3.75
2024-02-03T10:34:47.583Z,3.80
2024-02-03T10:37:12.061Z,3.90
2024-02-03T10:39:35.210Z,4.03
2024-02-03T10:41:59.382Z,3.90
2024-02-03T10:44:25.849Z,3.92
2024-02-03T10:46:51.814Z,3.70
2024-02-03T10:49:18.314Z,3.57
2024-02-03T10:51:42.613Z,3.45
2024-02-03T10:54:14.022Z,3.50
2024-02-03T10:56:39.919Z,3.47
2024-02-03T10:59:06.976Z,3.65
2024-02-03T11:01:38.143Z,3.50
2024-02-03T11:04:01.927Z,3.60
2024-02-03T11:06:34.609Z,3.50
2024-02-03T11:09:12.938Z,3.70
2024-02-03T11:11:35.589Z,3.63
2024-02-03T11:13:58.500Z,3.40
2024-02-03T11:16:21.472Z,3.65
2024-02-03T11:18:44.325Z,3.78
2024-02-03T11:21:08.552Z,3.17
2024-02-03T11:23:31.603Z,3.20
2024-02-03T11:25:54.428Z,2.90
2024-02-03T11:28:17.685Z,2.80
2024-02-03T11:30:40.615Z,3.35
2024-02-03T11:33:03.896Z,3.20
2024-02-03T11:35:26.860Z,3.13
2024-02-03T11:37:49.584Z,3.20
2024-02-03T11:40:12.840Z,2.90
2024-02-03T11:42:37.481Z,2.97
2024-02-03T11:45:04.195Z,2.78
2024-02-03T11:47:28.399Z,3.13
2024-02-03T11:49:53.076Z,2.63
2024-02-03T11:52:15.957Z,2.65
2024-02-03T11:54:38.738Z,3.00
2024-02-03T11:57:01.748Z,2.95
2024-02-03T11:59:31.148Z,3.13
2024-02-03T12:01:54.281Z,2.67
2024-02-03T12:04:17.087Z,2.72
2024-02-03T12:06:39.813Z,2.80
2024-02-03T12:09:02.610Z,3.10
2024-02-03T12:11:25.283Z,4.30
2024-02-03T12:13:48.971Z,2.53
2024-02-03T12:16:12.192Z,2.20
2024-02-03T12:18:38.551Z,2.63
2024-02-03T12:21:01.778Z,2.50
2024-02-03T12:23:25.528Z,2.45
2024-02-03T12:25:50.040Z,2.67
2024-02-03T12:28:12.853Z,2.50
2024-02-03T12:30:38.912Z,2.50
2024-02-03T12:33:01.917Z,2.40
2024-02-03T12:35:24.627Z,2.60
2024-02-03T12:37:47.352Z,2.50
2024-02-03T12:40:13.119Z,2.60
2024-02-03T12:42:36.676Z,2.50
2024-02-03T12:45:02.827Z,2.15
2024-02-03T12:47:26.440Z,2.28
2024-02-03T12:49:49.183Z,2.40
2024-02-03T12:52:11.955Z,2.20
2024-02-03T12:54:34.878Z,2.40
2024-02-03T12:56:57.776Z,2.30
2024-02-03T12:59:20.382Z,2.42
2024-02-03T13:01:43.192Z,2.20
2024-02-03T13:04:06.183Z,2.08
2024-02-03T13:06:28.858Z,2.13
2024-02-03T13:08:51.730Z,2.17
2024-02-03T13:11:17.761Z,2.28
2024-02-03T13:13:41.635Z,2.10
2024-02-03T13:16:04.947Z,1.90
2024-02-03T13:18:28.076Z,2.30
2024-02-03T13:20:50.770Z,2.15
2024-02-03T13:23:13.551Z,2.30
2024-02-03T13:25:36.561Z,1.77
2024-02-03T13:27:59.354Z,1.75
2024-02-03T13:30:22.871Z,2.35
2024-02-03T13:32:46.422Z,2.13
2024-02-03T13:35:10.256Z,2.28
2024-02-03T13:37:35.985Z,2.30
2024-02-03T13:39:58.757Z,2.67
2024-02-03T13:42:22.000Z,2.10
2024-02-03T13:44:45.071Z,2.60
2024-02-03T13:47:07.795Z,2.17
2024-02-03T13:49:30.619Z,1.87
2024-02-03T13:51:53.493Z,1.92
2024-02-03T13:54:17.104Z,2.17
2024-02-03T13:56:42.873Z,1.80
2024-02-03T13:59:05.840Z,2.15
2024-02-03T14:01:30.028Z,2.00
2024-02-03T14:03:53.218Z,2.20
2024-02-03T14:06:16.857Z,2.28
2024-02-03T14:08:40.117Z,2.20
2024-02-03T14:11:03.355Z,2.67
2024-02-03T14:13:26.062Z,2.27
2024-02-03T14:15:48.800Z,2.50
2024-02-03T14:18:12.199Z,2.50
2024-02-03T14:20:36.644Z,2.22
2024-02-03T14:22:59.417Z,2.88
2024-02-03T14:25:22.210Z,2.13
2024-02-03T14:27:45.921Z,2.60
2024-02-03T14:30:09.604Z,2.67
2024-02-03T14:32:32.771Z,2.53
2024-02-03T14:34:55.794Z,2.72
2024-02-03T14:37:18.911Z,2.83
2024-02-03T14:39:41.701Z,2.80
2024-02-03T14:42:06.630Z,2.95
2024-02-03T14:44:33.694Z,3.10
2024-02-03T14:46:56.599Z,3.40
2024-02-03T14:49:20.717Z,3.13
2024-02-03T14:51:43.970Z,2.90
2024-02-03T14:54:07.051Z,3.20
2024-02-03T14:56:29.972Z,3.35
2024-02-03T14:58:52.688Z,3.17
2024-02-03T15:01:15.480Z,3.17
2024-02-03T15:03:38.424Z,3.33
2024-02-03T15:06:01.502Z,3.08
2024-02-03T15:08:24.478Z,3.13
2024-02-03T15:10:49.252Z,3.20
2024-02-03T15:13:11.996Z,3.13
2024-02-03T15:15:34.654Z,3.20
2024-02-03T15:17:57.859Z,3.40
2024-02-03T15:20:20.965Z,3.05
2024-02-03T15:22:43.739Z,3.05
2024-02-03T15:25:06.842Z,2.90
2024-02-03T15:27:29.715Z,3.10
2024-02-03T15:29:52.484Z,2.80
2024-02-03T15:32:15.371Z,2.78
2024-02-03T15:34:38.318Z,2.67
2024-02-03T15:37:03.079Z,2.57
2024-02-03T15:39:26.261Z,2.85
2024-02-03T15:41:49.064Z,2.97
2024-02-03T15:44:12.127Z,3.10
2024-02-03T15:46:43.712Z,2.90
2024-02-03T15:49:08.495Z,3.20
2024-02-03T15:51:31.301Z,3.10
2024-02-03T15:53:54.175Z,2.83
2024-02-03T15:56:16.995Z,2.75
2024-02-03T15:58:40.041Z,2.70
2024-02-03T16:01:03.108Z,3.00
2024-02-03T16:03:26.085Z,2.15
2024-02-03T16:05:49.077Z,2.78
2024-02-03T16:08:11.871Z,2.70
2024-02-03T16:10:34.646Z,3.20
2024-02-03T16:12:57.482Z,3.00
2024-02-03T16:15:20.550Z,2.95
2024-02-03T16:17:43.371Z,3.22
2024-02-03T16:20:11.662Z,3.17
2024-02-03T16:22:37.158Z,2.90
2024-02-03T16:24:59.904Z,2.90
2024-02-03T16:27:22.900Z,2.85
2024-02-03T16:29:45.950Z,2.95
2024-02-03T16:32:09.027Z,3.08
2024-02-03T16:34:32.005Z,3.13
2024-02-03T16:36:55.154Z,2.80
2024-02-03T16:39:17.964Z,2.80
2024-02-03T16:41:40.931Z,2.83
2024-02-03T16:44:04.149Z,2.65
2024-02-03T16:46:26.864Z,3.17
2024-02-03T16:48:49.858Z,3.03
2024-02-03T16:51:12.900Z,2.90
2024-02-03T16:53:35.637Z,2.78
2024-02-03T16:55:58.464Z,2.92
2024-02-03T16:58:21.138Z,2.65
2024-02-03T17:00:43.978Z,2.80
2024-02-03T17:03:09.864Z,2.88
2024-02-03T17:05:33.578Z,2.88
2024-02-03T17:07:56.717Z,2.85
2024-02-03T17:10:19.349Z,3.20
2024-02-03T17:12:42.076Z,3.20
2024-02-03T17:15:05.949Z,3.47
2024-02-03T17:17:28.829Z,3.15
2024-02-03T17:19:52.044Z,2.70
2024-02-03T17:22:15.122Z,3.30
2024-02-03T17:24:37.778Z,3.20
2024-02-03T17:27:00.853Z,3.38
2024-02-03T17:29:23.709Z,3.85
2024-02-03T17:31:46.806Z,3.70
2024-02-03T17:34:09.984Z,3.85
2024-02-03T17:36:33.208Z,3.07
2024-02-03T17:38:57.835Z,3.58
2024-02-03T17:41:20.857Z,3.85
2024-02-03T17:43:43.933Z,3.80
2024-02-03T17:46:07.155Z,3.60
2024-02-03T17:48:30.028Z,3.73
2024-02-03T17:50:52.832Z,3.88
2024-02-03T17:53:15.495Z,3.90
2024-02-03T17:55:38.352Z,4.00
2024-02-03T17:58:01.492Z,3.85
2024-02-03T18:00:24.943Z,3.73
2024-02-03T18:02:48.311Z,3.60
2024-02-03T18:05:11.169Z,3.50
2024-02-03T18:07:35.572Z,3.53
2024-02-03T18:09:59.174Z,3.50
2024-02-03T18:12:22.528Z,3.63
2024-02-03T18:14:45.517Z,3.35
2024-02-03T18:17:08.406Z,4.30
2024-02-03T18:19:31.551Z,4.50
2024-02-03T18:21:54.566Z,4.38
2024-02-03T18:24:18.021Z,4.30
2024-02-03T18:26:41.593Z,4.00
2024-02-03T18:29:04.500Z,4.20
2024-02-03T18:31:27.240Z,3.67
2024-02-03T18:33:50.081Z,3.85
2024-02-03T18:36:14.134Z,3.83
2024-02-03T18:38:37.567Z,3.60
2024-02-03T18:41:00.626Z,3.72
2024-02-03T18:43:23.514Z,3.85
2024-02-03T18:45:46.859Z,4.18
2024-02-03T18:48:13.701Z,3.53
2024-02-03T18:50:37.079Z,3.85
2024-02-03T18:53:00.349Z,3.90
2024-02-03T18:55:23.491Z,3.55
2024-02-03T18:57:46.251Z,3.60
2024-02-03T19:00:13.896Z,3.63
2024-02-03T19:02:36.948Z,3.75
2024-02-03T19:04:59.740Z,3.70
2024-02-03T19:07:22.952Z,3.97
2024-02-03T19:09:45.953Z,3.80
2024-02-03T19:12:10.882Z,3.73
2024-02-03T19:14:34.792Z,3.63
2024-02-03T19:16:57.535Z,3.60
2024-02-03T19:19:20.630Z,3.67
2024-02-03T19:21:43.980Z,4.32
2024-02-03T19:24:13.270Z,5.13
2024-02-03T19:26:36.876Z,4.88
2024-02-03T19:29:00.648Z,4.88
2024-02-03T19:31:23.687Z,4.75
2024-02-03T19:33:46.807Z,4.75
2024-02-03T19:36:10.588Z,4.40
2024-02-03T19:38:35.530Z,4.03
2024-02-03T19:40:58.158Z,3.63
2024-02-03T19:43:20.867Z,3.67
2024-02-03T19:45:43.783Z,3.75
2024-02-03T19:48:06.918Z,3.73
2024-02-03T19:50:30.089Z,3.80
2024-02-03T19:52:53.059Z,3.78
2024-02-03T19:55:16.227Z,3.63
2024-02-03T19:57:39.259Z,3.95
2024-02-03T20:00:02.074Z,3.60
2024-02-03T20:02:28.918Z,3.67
2024-02-03T20:04:51.995Z,3.58
2024-02-03T20:07:16.049Z,3.70
2024-02-03T20:09:40.732Z,3.90
2024-02-03T20:12:04.041Z,3.63
2024-02-03T20:14:27.191Z,3.88
2024-02-03T20:16:53.004Z,3.63
2024-02-03T20:19:16.338Z,3.60
2024-02-03T20:21:39.250Z,3.60
2024-02-03T20:24:02.290Z,3.60
2024-02-03T20:26:25.154Z,3.42
2024-02-03T20:28:47.848Z,3.40
2024-02-03T20:31:11.686Z,3.10
2024-02-03T20:33:34.716Z,3.40
2024-02-03T20:35:57.674Z,3.03
2024-02-03T20:38:20.663Z,3.20
2024-02-03T20:40:47.786Z,3.40
2024-02-03T20:43:14.677Z,2.90
2024-02-03T20:45:37.616Z,3.33
2024-02-03T20:48:00.539Z,2.60
2024-02-03T20:50:23.585Z,2.70
2024-02-03T20:52:46.337Z,2.75
2024-02-03T20:55:09.620Z,2.60
2024-02-03T20:57:32.747Z,2.40
2024-02-03T20:59:55.546Z,2.40
2024-02-03T21:02:18.527Z,2.33
2024-02-03T21:04:41.597Z,2.33
2024-02-03T21:07:09.200Z,2.20
2024-02-03T21:09:32.410Z,2.13
2024-02-03T21:11:55.302Z,2.07
2024-02-03T21:14:18.131Z,1.90
2024-02-03T21:16:41.041Z,2.00
2024-02-03T21:19:04.276Z,1.90
2024-02-03T21:21:38.722Z,2.00
2024-02-03T21:24:02.066Z,1.90
2024-02-03T21:26:24.996Z,1.70
2024-02-03T21:28:47.601Z,1.80
2024-02-03T21:31:10.489Z,2.00
2024-02-03T21:33:35.570Z,2.40
2024-02-03T21:35:58.312Z,1.90
2024-02-03T21:38:21.035Z,1.80
2024-02-03T21:40:46.443Z,2.40
2024-02-03T21:43:10.339Z,2.50
2024-02-03T21:45:33.269Z,2.60
2024-02-03T21:47:56.054Z,2.40
2024-02-03T21:50:18.888Z,2.45
2024-02-03T21:52:41.721Z,2.20
2024-02-03T21:55:04.926Z,1.90
2024-02-03T21:57:27.730Z,2.30
2024-02-03T21:59:50.696Z,2.37
2024-02-03T22:02:13.411Z,2.00
2024-02-03T22:04:36.199Z,2.25
2024-02-03T22:06:59.390Z,2.20
2024-02-03T22:09:22.387Z,2.10
2024-02-03T22:11:45.346Z,2.03
2024-02-03T22:14:08.028Z,2.17
2024-02-03T22:16:31.385Z,2.45
2024-02-03T22:18:54.048Z,2.38
2024-02-03T22:21:16.755Z,2.28
2024-02-03T22:23:39.678Z,1.93
2024-02-03T22:26:02.380Z,1.80
2024-02-03T22:28:25.154Z,1.92
2024-02-03T22:30:48.345Z,1.83
2024-02-03T22:33:11.237Z,2.10
2024-02-03T22:35:34.049Z,2.03
2024-02-03T22:37:57.084Z,1.80
2024-02-03T22:40:19.744Z,2.20
2024-02-03T22:42:42.543Z,1.75
2024-02-03T22:45:05.918Z,2.08
2024-02-03T22:47:28.477Z,2.00
2024-02-03T22:49:51.190Z,2.00
2024-02-03T22:52:13.897Z,1.98
2024-02-03T22:54:36.714Z,2.22
2024-02-03T22:56:59.677Z,1.67
2024-02-03T22:59:22.377Z,1.93
2024-02-03T23:01:45.644Z,1.90
2024-02-03T23:04:08.789Z,1.70
2024-02-03T23:06:32.520Z,2.10
2024-02-03T23:08:55.349Z,1.98
2024-02-03T23:11:18.924Z,1.60
2024-02-03T23:13:42.004Z,1.50
2024-02-03T23:16:06.062Z,1.63
2024-02-03T23:18:29.213Z,1.50
2024-02-03T23:20:52.087Z,1.35
2024-02-03T23:23:15.433Z,1.47
2024-02-03T23:25:38.272Z,1.70
2024-02-03T23:28:01.132Z,1.42
2024-02-03T23:30:27.756Z,1.48
2024-02-03T23:32:50.641Z,1.30
2024-02-03T23:35:13.475Z,1.50
2024-02-03T23:37:36.398Z,1.40
2024-02-03T23:39:59.232Z,1.65
2024-02-03T23:42:22.722Z,1.73
2024-02-03T23:44:45.624Z,1.65
2024-02-03T23:47:08.355Z,1.50
2024-02-03T23:49:31.354Z,1.40
2024-02-03T23:51:54.103Z,1.60
2024-02-03T23:54:17.474Z,1.40
2024-02-03T23:56:40.677Z,1.20
2024-02-03T23:59:04.698Z,1.53
